Time;durP1;ratioP1;P1;durP2;ratioP2;P2;SDS_P1;SDS_P2;PMS_P1;PMS_P2;Temp;Humidity;BMP_temperature;BMP_pressure;BME280_temperature;BME280_humidity;BME280_pressure;Samples;Min_cycle;Max_cycle;Signal;HPM_P1;HPM_P2
2022/04/06 00:00:08;;;;;;;10.83;9.63;;;9.80;99.90;;;;;;5010288;28;20454;-75
2022/04/06 00:02:53;;;;;;;19.00;11.50;;;9.80;99.90;;;;;;5016907;28;20875;-74
2022/04/06 00:05:39;;;;;;;14.10;12.00;;;9.80;99.90;;;;;;5014144;28;20451;-73
2022/04/06 00:08:25;;;;;;;15.77;11.30;;;9.70;99.90;;;;;;5009224;28;20466;-73
2022/04/06 00:11:11;;;;;;;13.10;10.20;;;9.80;99.90;;;;;;5017591;28;20468;-74
2022/04/06 00:13:57;;;;;;;19.13;9.67;;;9.80;99.90;;;;;;5013030;28;20952;-73
2022/04/06 00:16:44;;;;;;;14.60;10.60;;;9.80;99.90;;;;;;5016018;28;20480;-73
2022/04/06 00:19:30;;;;;;;14.63;10.93;;;9.80;99.90;;;;;;5007908;28;20458;-74
2022/04/06 00:22:15;;;;;;;14.30;9.90;;;9.80;99.90;;;;;;5008228;28;20449;-73
2022/04/06 00:25:01;;;;;;;11.53;10.30;;;9.80;99.90;;;;;;5018574;28;20809;-72
2022/04/06 00:27:47;;;;;;;11.00;9.33;;;9.80;99.90;;;;;;5011539;28;20496;-73
2022/04/06 00:30:33;;;;;;;12.83;10.00;;;9.80;99.90;;;;;;5011213;28;20521;-74
2022/04/06 00:33:20;;;;;;;12.97;10.00;;;9.80;99.90;;;;;;5010637;28;20453;-74
2022/04/06 00:36:06;;;;;;;15.20;9.47;;;9.80;99.90;;;;;;5007058;28;20510;-73
2022/04/06 00:38:52;;;;;;;12.23;10.10;;;9.90;99.90;;;;;;5009221;28;20453;-74
2022/04/06 00:41:39;;;;;;;15.80;11.33;;;9.90;99.90;;;;;;5013430;28;20446;-72
2022/04/06 00:44:24;;;;;;;19.20;10.90;;;9.90;99.90;;;;;;5013349;28;20466;-73
2022/04/06 00:47:10;;;;;;;13.57;10.20;;;9.90;99.90;;;;;;5014861;28;20485;-73
2022/04/06 00:49:57;;;;;;;21.23;12.23;;;9.80;99.90;;;;;;5009440;28;20597;-73
2022/04/06 00:52:43;;;;;;;14.67;11.70;;;9.70;99.90;;;;;;5017857;28;20496;-73
2022/04/06 00:55:32;;;;;;;17.13;12.20;;;9.80;99.90;;;;;;5013067;28;20475;-73
2022/04/06 00:58:18;;;;;;;13.53;12.10;;;9.80;99.90;;;;;;5013134;28;20440;-74
2022/04/06 01:01:04;;;;;;;14.37;12.57;;;9.90;99.90;;;;;;5014591;28;20445;-73
2022/04/06 01:03:49;;;;;;;13.30;11.23;;;9.90;99.90;;;;;;5007109;28;20520;-74
2022/04/06 01:06:36;;;;;;;15.30;13.17;;;9.90;99.90;;;;;;5010473;28;20498;-74
2022/04/06 01:09:22;;;;;;;12.87;11.43;;;9.90;99.90;;;;;;5009058;28;20493;-74
2022/04/06 01:12:09;;;;;;;14.10;11.77;;;9.90;99.90;;;;;;5010315;28;20453;-73
2022/04/06 01:14:55;;;;;;;14.70;11.43;;;9.90;99.90;;;;;;5011388;28;20947;-73
2022/04/06 01:17:41;;;;;;;15.43;12.80;;;10.00;99.90;;;;;;5007698;28;20471;-73
2022/04/06 01:20:26;;;;;;;17.33;13.53;;;10.00;99.90;;;;;;5008163;28;20422;-73
2022/04/06 01:23:13;;;;;;;18.80;13.43;;;9.90;99.90;;;;;;5005132;28;20445;-74
2022/04/06 01:25:59;;;;;;;20.20;11.63;;;9.90;99.90;;;;;;5010731;28;21002;-73
2022/04/06 01:28:45;;;;;;;16.77;12.90;;;9.90;99.90;;;;;;5007878;28;20469;-73
2022/04/06 01:31:31;;;;;;;17.77;13.30;;;9.90;99.90;;;;;;5012222;28;20450;-74
2022/04/06 01:34:16;;;;;;;16.10;12.50;;;9.80;99.90;;;;;;5007774;28;20437;-74
2022/04/06 01:37:04;;;;;;;19.37;12.13;;;9.80;99.90;;;;;;5009173;28;20628;-73
2022/04/06 01:39:51;;;;;;;15.63;12.20;;;9.80;99.90;;;;;;5008495;28;20876;-74
2022/04/06 01:42:37;;;;;;;21.53;14.17;;;9.90;99.90;;;;;;5017749;28;20451;-74
2022/04/06 01:45:23;;;;;;;16.37;12.83;;;9.90;99.90;;;;;;5012476;28;20982;-73
2022/04/06 01:48:09;;;;;;;16.53;13.20;;;9.90;99.90;;;;;;5018921;28;20468;-75
2022/04/06 01:53:58;;;;;;;15.50;12.70;;;9.90;99.90;;;;;;5014277;28;20442;-73
2022/04/06 01:56:45;;;;;;;16.33;12.80;;;9.90;99.90;;;;;;5014040;28;20462;-73
2022/04/06 01:59:30;;;;;;;16.43;12.07;;;9.90;99.90;;;;;;5016419;28;20553;-73
2022/04/06 02:02:18;;;;;;;16.73;12.90;;;9.90;99.90;;;;;;5010671;28;20460;-74
2022/04/06 02:05:05;;;;;;;17.10;13.57;;;9.90;99.90;;;;;;5022016;28;20448;-73
2022/04/06 02:07:51;;;;;;;18.97;13.17;;;9.90;99.90;;;;;;5009165;28;20890;-73
2022/04/06 02:10:38;;;;;;;18.03;13.23;;;9.80;99.90;;;;;;5015953;28;20623;-74
2022/04/06 02:13:26;;;;;;;17.20;13.27;;;9.90;99.90;;;;;;5016047;28;20446;-73
2022/04/06 02:16:11;;;;;;;16.57;12.63;;;9.80;99.90;;;;;;5015340;28;20833;-73
2022/04/06 02:18:58;;;;;;;16.13;10.93;;;9.80;99.90;;;;;;5013762;28;20433;-73
2022/04/06 02:21:44;;;;;;;15.20;12.73;;;9.80;99.90;;;;;;5014083;28;20547;-73
2022/04/06 02:24:29;;;;;;;16.00;12.20;;;9.80;99.90;;;;;;5016167;28;20437;-73
2022/04/06 02:27:16;;;;;;;15.13;11.90;;;9.90;99.90;;;;;;5010041;28;21025;-73
2022/04/06 02:30:03;;;;;;;16.13;12.50;;;9.90;99.90;;;;;;5013187;28;20459;-73
2022/04/06 02:32:49;;;;;;;15.13;12.10;;;9.80;99.90;;;;;;5014744;28;20439;-73
2022/04/06 02:35:35;;;;;;;14.73;12.37;;;9.80;99.90;;;;;;5014429;28;20533;-73
2022/04/06 02:38:20;;;;;;;18.87;12.97;;;9.80;99.90;;;;;;5011150;28;20486;-74
2022/04/06 02:41:06;;;;;;;23.70;12.83;;;9.80;99.90;;;;;;5020068;28;20499;-73
2022/04/06 02:43:51;;;;;;;13.97;11.60;;;9.80;99.90;;;;;;5014291;28;20502;-74
2022/04/06 02:46:39;;;;;;;16.30;11.77;;;9.80;99.90;;;;;;5018873;28;20456;-74
2022/04/06 02:49:24;;;;;;;13.73;11.30;;;9.80;99.90;;;;;;5018624;28;20539;-74
2022/04/06 02:52:10;;;;;;;14.50;12.50;;;9.90;99.90;;;;;;5011960;28;20446;-73
2022/04/06 02:54:55;;;;;;;20.77;11.17;;;9.90;99.90;;;;;;5018230;28;21055;-73
2022/04/06 02:57:42;;;;;;;14.27;11.47;;;9.90;99.90;;;;;;5007114;28;21549;-73
2022/04/06 03:00:30;;;;;;;16.13;11.27;;;10.00;99.90;;;;;;5011529;28;20446;-73
2022/04/06 03:03:17;;;;;;;14.83;9.60;;;10.00;99.90;;;;;;5014075;28;20445;-74
2022/04/06 03:06:03;;;;;;;10.67;9.53;;;10.10;99.90;;;;;;5013180;28;20789;-73
2022/04/06 03:08:49;;;;;;;12.93;11.13;;;10.10;99.90;;;;;;5019769;28;20525;-74
2022/04/06 03:11:35;;;;;;;14.50;11.20;;;10.10;99.90;;;;;;5015736;28;20577;-73
2022/04/06 03:14:21;;;;;;;12.37;10.40;;;10.10;99.90;;;;;;5015360;28;20457;-74
2022/04/06 03:17:07;;;;;;;18.73;10.90;;;10.10;99.90;;;;;;5006039;28;20481;-73
2022/04/06 03:19:54;;;;;;;14.53;10.43;;;10.10;99.90;;;;;;5016365;28;20466;-74
2022/04/06 03:22:40;;;;;;;13.67;10.63;;;10.10;99.90;;;;;;5015752;28;20510;-74
2022/04/06 03:25:26;;;;;;;12.97;10.03;;;10.00;99.90;;;;;;5014553;28;20530;-74
2022/04/06 03:28:12;;;;;;;13.87;9.77;;;10.00;99.90;;;;;;5013995;28;20488;-74
2022/04/06 03:30:58;;;;;;;13.03;10.30;;;10.10;99.90;;;;;;5014717;28;20583;-73
2022/04/06 03:33:43;;;;;;;11.80;9.27;;;10.00;99.90;;;;;;5010462;28;20829;-73
2022/04/06 03:36:30;;;;;;;13.47;10.30;;;10.10;99.90;;;;;;5009723;28;20506;-73
2022/04/06 03:39:16;;;;;;;12.87;9.93;;;10.00;99.90;;;;;;5014383;28;20434;-74
2022/04/06 03:42:02;;;;;;;14.77;11.27;;;10.00;99.90;;;;;;5021474;28;20808;-73
2022/04/06 03:44:48;;;;;;;12.07;10.57;;;10.10;99.90;;;;;;5020239;28;20464;-74
2022/04/06 03:47:35;;;;;;;14.80;10.10;;;10.00;99.90;;;;;;5013751;28;20841;-74
2022/04/06 03:50:21;;;;;;;13.37;10.23;;;10.00;99.90;;;;;;5019399;28;20468;-74
2022/04/06 03:53:08;;;;;;;15.57;10.20;;;10.00;99.90;;;;;;5011114;28;20999;-73
2022/04/06 03:55:54;;;;;;;13.33;9.90;;;10.00;99.90;;;;;;5011297;28;20446;-74
2022/04/06 03:58:39;;;;;;;12.13;9.63;;;10.10;99.90;;;;;;5012084;28;20481;-74
2022/04/06 04:01:25;;;;;;;13.63;9.60;;;10.10;99.90;;;;;;5008941;28;20492;-73
2022/04/06 04:04:10;;;;;;;11.90;9.80;;;10.10;99.90;;;;;;5014719;28;20509;-73
2022/04/06 04:06:56;;;;;;;13.50;10.47;;;10.10;99.90;;;;;;5011651;28;20525;-74
2022/04/06 04:09:43;;;;;;;12.50;10.30;;;10.10;99.90;;;;;;5011389;28;20456;-74
2022/04/06 04:12:29;;;;;;;14.00;10.47;;;10.10;99.90;;;;;;5017029;28;20849;-74
2022/04/06 04:15:15;;;;;;;13.97;10.87;;;10.10;99.90;;;;;;5010212;28;20535;-73
2022/04/06 04:18:01;;;;;;;13.67;9.67;;;10.10;99.90;;;;;;5017348;28;20457;-73
2022/04/06 04:20:46;;;;;;;12.90;9.47;;;10.10;99.90;;;;;;5013195;28;20460;-73
2022/04/06 04:23:32;;;;;;;12.60;10.33;;;10.20;99.90;;;;;;5016655;28;20813;-73
2022/04/06 04:26:19;;;;;;;12.10;9.73;;;10.10;99.90;;;;;;5010924;28;20855;-73
2022/04/06 04:29:05;;;;;;;18.50;9.83;;;10.10;99.90;;;;;;5011073;28;21058;-73
2022/04/06 04:31:51;;;;;;;12.20;9.40;;;10.10;99.90;;;;;;5018569;28;21045;-73
2022/04/06 04:34:37;;;;;;;16.30;9.80;;;10.10;99.90;;;;;;5016133;28;20421;-73
2022/04/06 04:37:23;;;;;;;11.93;9.60;;;10.10;99.90;;;;;;5011554;28;20447;-73
2022/04/06 04:40:10;;;;;;;13.10;8.73;;;10.10;99.90;;;;;;5016295;28;20431;-73
2022/04/06 04:42:57;;;;;;;13.33;10.00;;;10.10;99.90;;;;;;5009549;28;20993;-74
2022/04/06 04:45:43;;;;;;;12.60;8.83;;;10.10;99.90;;;;;;5012805;28;20429;-74
2022/04/06 04:48:28;;;;;;;15.40;10.43;;;10.20;99.90;;;;;;5015674;28;21015;-74
2022/04/06 04:51:14;;;;;;;11.10;8.20;;;10.10;99.90;;;;;;5015364;28;20443;-75
2022/04/06 04:54:00;;;;;;;12.67;9.30;;;10.10;99.90;;;;;;5011463;28;20621;-74
2022/04/06 04:56:46;;;;;;;11.03;9.50;;;10.10;99.90;;;;;;5010595;28;20472;-73
2022/04/06 04:59:33;;;;;;;10.70;8.70;;;10.10;99.90;;;;;;5011192;28;20433;-73
2022/04/06 05:02:19;;;;;;;13.10;9.90;;;10.10;99.90;;;;;;5015923;28;20496;-73
2022/04/06 05:05:05;;;;;;;11.80;9.03;;;10.20;99.90;;;;;;5010634;28;21246;-73
2022/04/06 05:07:51;;;;;;;11.00;8.57;;;10.20;99.90;;;;;;5014752;28;20592;-74
2022/04/06 05:10:36;;;;;;;11.40;8.90;;;10.20;99.90;;;;;;5016570;28;20460;-73
2022/04/06 05:13:22;;;;;;;11.33;8.80;;;10.20;99.90;;;;;;5014653;28;20440;-73
2022/04/06 05:16:09;;;;;;;13.73;9.70;;;10.20;99.90;;;;;;5010429;28;20939;-73
2022/04/06 05:18:55;;;;;;;13.77;9.30;;;10.20;99.90;;;;;;5014320;28;20459;-73
2022/04/06 05:21:41;;;;;;;15.20;9.20;;;10.20;99.90;;;;;;5017069;28;20509;-73
2022/04/06 05:24:27;;;;;;;11.43;8.50;;;10.20;99.90;;;;;;5016254;28;20454;-74
2022/04/06 05:27:13;;;;;;;16.40;8.50;;;10.20;99.90;;;;;;5015346;28;21018;-73
2022/04/06 05:29:59;;;;;;;14.90;9.10;;;10.10;99.90;;;;;;5015330;28;20495;-74
2022/04/06 05:32:47;;;;;;;17.40;9.97;;;10.10;99.90;;;;;;5013294;28;20574;-74
2022/04/06 05:35:33;;;;;;;15.50;10.53;;;10.10;99.90;;;;;;5013770;28;20597;-74
2022/04/06 05:38:19;;;;;;;11.60;8.83;;;10.10;99.90;;;;;;5017154;28;20975;-73
2022/04/06 05:41:04;;;;;;;11.80;9.30;;;10.20;99.90;;;;;;5019218;28;20450;-74
2022/04/06 05:43:50;;;;;;;12.90;9.87;;;10.20;99.90;;;;;;5023278;28;20453;-74
2022/04/06 05:46:36;;;;;;;13.10;9.87;;;10.20;99.90;;;;;;5018368;28;21057;-73
2022/04/06 05:49:22;;;;;;;14.60;10.10;;;10.20;99.90;;;;;;5020988;28;20428;-73
2022/04/06 05:52:09;;;;;;;14.60;10.40;;;10.20;99.90;;;;;;5016999;28;20790;-73
2022/04/06 05:54:55;;;;;;;11.90;9.53;;;10.20;99.90;;;;;;5013227;28;20443;-73
2022/04/06 05:57:41;;;;;;;13.03;10.00;;;10.20;99.90;;;;;;5014751;28;20458;-72
2022/04/06 06:00:27;;;;;;;13.40;9.57;;;10.20;99.90;;;;;;5012445;28;20492;-73
2022/04/06 06:03:13;;;;;;;10.83;8.80;;;10.30;99.90;;;;;;5010351;28;20446;-72
2022/04/06 06:06:00;;;;;;;11.40;8.93;;;10.40;99.90;;;;;;5011090;28;20411;-73
2022/04/06 06:08:46;;;;;;;12.43;10.30;;;10.30;99.90;;;;;;5013522;28;20465;-72
2022/04/06 06:11:32;;;;;;;11.87;9.33;;;10.40;99.90;;;;;;5017580;28;20448;-73
2022/04/06 06:14:18;;;;;;;13.77;9.30;;;10.40;99.90;;;;;;5016623;28;20473;-72
2022/04/06 06:17:04;;;;;;;11.73;8.60;;;10.40;99.90;;;;;;5012201;28;20620;-72
2022/04/06 06:19:49;;;;;;;10.53;8.30;;;10.40;99.90;;;;;;5010087;28;20421;-72
2022/04/06 06:22:36;;;;;;;9.83;7.73;;;10.40;99.90;;;;;;5013023;28;20484;-72
2022/04/06 06:25:22;;;;;;;12.10;8.90;;;10.50;99.90;;;;;;5010797;28;20814;-72
2022/04/06 06:28:08;;;;;;;10.17;7.40;;;10.50;99.90;;;;;;5014270;28;20856;-73
2022/04/06 06:30:54;;;;;;;9.20;7.87;;;10.50;99.90;;;;;;5016691;28;20932;-72
2022/04/06 06:33:40;;;;;;;11.93;8.87;;;10.50;99.90;;;;;;5008484;28;20454;-73
2022/04/06 06:36:26;;;;;;;10.93;8.27;;;10.50;99.90;;;;;;5012598;28;20843;-73
2022/04/06 06:39:13;;;;;;;11.27;8.20;;;10.60;99.90;;;;;;5018183;28;20754;-72
2022/04/06 06:41:59;;;;;;;9.10;7.63;;;10.60;99.90;;;;;;5014218;28;20434;-72
2022/04/06 06:44:45;;;;;;;9.63;8.17;;;10.60;99.90;;;;;;5011496;28;20992;-72
2022/04/06 06:47:30;;;;;;;12.30;7.50;;;10.70;99.90;;;;;;5012324;28;20436;-72
2022/04/06 06:50:18;;;;;;;9.90;7.60;;;10.60;99.90;;;;;;5013679;28;20473;-72
2022/04/06 06:53:03;;;;;;;10.40;8.37;;;10.60;99.90;;;;;;5013949;28;20855;-72
2022/04/06 06:55:50;;;;;;;13.43;8.73;;;10.70;99.90;;;;;;5008372;28;20460;-73
2022/04/06 06:58:36;;;;;;;12.20;6.77;;;10.80;99.90;;;;;;5012549;28;20438;-72
2022/04/06 07:01:21;;;;;;;12.37;8.20;;;10.80;99.90;;;;;;5007243;28;20418;-72
2022/04/06 07:04:07;;;;;;;9.60;8.10;;;10.80;99.90;;;;;;5016455;28;20437;-72
2022/04/06 07:06:52;;;;;;;12.33;8.17;;;10.80;99.90;;;;;;5010925;28;20965;-72
2022/04/06 07:09:38;;;;;;;11.17;7.60;;;10.80;99.90;;;;;;5011988;28;20470;-72
2022/04/06 07:12:25;;;;;;;13.13;8.43;;;10.90;99.90;;;;;;4993338;28;20846;-72
2022/04/06 07:15:11;;;;;;;10.43;8.17;;;10.80;99.90;;;;;;5004649;28;20519;-72
2022/04/06 07:17:58;;;;;;;12.27;8.67;;;10.90;99.90;;;;;;5007454;28;20973;-72
2022/04/06 07:20:43;;;;;;;14.90;9.10;;;10.90;99.90;;;;;;5004037;28;20457;-72
2022/04/06 07:23:29;;;;;;;12.73;8.07;;;10.80;99.90;;;;;;5005436;28;20534;-72
2022/04/06 07:26:16;;;;;;;10.30;7.83;;;10.90;99.90;;;;;;5013312;28;20486;-72
2022/04/06 07:29:03;;;;;;;10.33;7.60;;;11.00;99.90;;;;;;5009447;28;20453;-72
2022/04/06 07:31:49;;;;;;;11.70;8.10;;;11.00;99.90;;;;;;5008300;28;20468;-73
2022/04/06 07:34:34;;;;;;;9.13;7.47;;;11.10;99.90;;;;;;5011732;28;20612;-72
2022/04/06 07:37:20;;;;;;;11.63;8.80;;;11.10;99.90;;;;;;5017343;28;20437;-72
2022/04/06 07:40:08;;;;;;;9.50;7.83;;;11.10;99.90;;;;;;5012438;28;20482;-73
2022/04/06 07:42:54;;;;;;;10.27;8.43;;;11.10;99.90;;;;;;5006418;28;20463;-72
2022/04/06 07:45:41;;;;;;;13.10;8.40;;;11.10;99.90;;;;;;4998214;28;20450;-72
2022/04/06 07:48:27;;;;;;;12.10;7.80;;;11.10;99.90;;;;;;5008492;28;20452;-72
2022/04/06 07:51:13;;;;;;;11.93;7.20;;;11.00;99.90;;;;;;5009146;28;22741;-73
2022/04/06 07:53:59;;;;;;;9.57;6.97;;;11.00;99.90;;;;;;5011128;28;20412;-72
2022/04/06 07:56:44;;;;;;;8.73;7.10;;;11.00;99.90;;;;;;5012943;28;20454;-72
2022/04/06 07:59:30;;;;;;;9.40;7.27;;;11.00;99.90;;;;;;5010262;28;20993;-72
2022/04/06 08:02:17;;;;;;;11.70;6.87;;;11.10;99.90;;;;;;5005733;28;20425;-72
2022/04/06 08:05:04;;;;;;;8.10;7.30;;;11.10;99.90;;;;;;5011984;28;20768;-72
2022/04/06 08:07:53;;;;;;;9.20;7.67;;;11.10;99.90;;;;;;5012291;28;20430;-72
2022/04/06 08:10:38;;;;;;;10.03;6.70;;;11.10;99.90;;;;;;5008765;28;20618;-72
2022/04/06 08:13:23;;;;;;;17.23;6.93;;;11.00;99.90;;;;;;5009480;28;20470;-72
2022/04/06 08:16:09;;;;;;;11.30;6.70;;;11.10;99.90;;;;;;5008089;28;20505;-72
2022/04/06 08:18:56;;;;;;;8.37;6.50;;;11.10;99.90;;;;;;5014511;28;20395;-72
2022/04/06 08:21:42;;;;;;;11.17;6.00;;;11.20;99.90;;;;;;5011302;28;20537;-72
2022/04/06 08:24:28;;;;;;;8.33;6.43;;;11.20;99.90;;;;;;5015743;28;20400;-72
2022/04/06 08:27:14;;;;;;;7.90;6.27;;;11.20;99.90;;;;;;5015574;28;20449;-72
2022/04/06 08:30:00;;;;;;;13.60;6.40;;;11.10;99.90;;;;;;4994740;28;20868;-73
2022/04/06 08:32:46;;;;;;;11.40;6.70;;;11.20;99.90;;;;;;5012767;28;20451;-73
2022/04/06 08:35:33;;;;;;;11.57;6.27;;;11.20;99.90;;;;;;5018702;28;20928;-73
2022/04/06 08:38:18;;;;;;;8.70;6.03;;;11.30;99.90;;;;;;5007353;28;20432;-73
2022/04/06 08:41:04;;;;;;;8.00;6.00;;;11.30;99.90;;;;;;5010117;28;20511;-73
2022/04/06 08:43:49;;;;;;;9.77;6.50;;;11.30;99.90;;;;;;5002653;28;20422;-73
2022/04/06 08:46:36;;;;;;;7.47;5.53;;;11.40;99.90;;;;;;5011515;28;20900;-72
2022/04/06 08:49:24;;;;;;;13.53;6.40;;;11.40;99.90;;;;;;5014413;28;20746;-72
2022/04/06 08:52:12;;;;;;;6.30;4.80;;;11.40;99.90;;;;;;5001346;28;20765;-72
2022/04/06 08:54:58;;;;;;;8.57;6.07;;;11.50;99.90;;;;;;5006616;28;20507;-72
2022/04/06 08:57:44;;;;;;;20.07;5.60;;;11.60;99.90;;;;;;5012757;28;20451;-72
2022/04/06 09:00:30;;;;;;;11.93;5.87;;;11.60;99.90;;;;;;5016624;28;20445;-72
2022/04/06 09:03:17;;;;;;;9.67;5.33;;;11.80;99.90;;;;;;5009616;28;20484;-73
2022/04/06 09:06:04;;;;;;;9.13;5.27;;;11.80;99.90;;;;;;5021175;28;21202;-72
2022/04/06 09:08:51;;;;;;;10.70;5.83;;;11.80;99.90;;;;;;5017098;28;20396;-73
2022/04/06 09:11:42;;;;;;;8.87;4.70;;;11.80;99.90;;;;;;5014874;28;20548;-72
2022/04/06 09:14:33;;;;;;;5.47;4.47;;;11.80;99.90;;;;;;5013170;28;20530;-72
2022/04/06 09:17:21;;;;;;;11.53;4.53;;;11.80;99.90;;;;;;5010305;28;20558;-73
2022/04/06 09:20:10;;;;;;;10.40;5.20;;;11.80;99.90;;;;;;5016854;28;20987;-72
2022/04/06 09:22:56;;;;;;;9.40;5.33;;;11.80;99.90;;;;;;5015395;28;20474;-72
2022/04/06 09:25:43;;;;;;;6.67;5.50;;;11.80;99.90;;;;;;5013409;28;20524;-72
2022/04/06 09:28:29;;;;;;;8.40;6.00;;;11.80;99.90;;;;;;5017800;28;20426;-72
2022/04/06 09:31:16;;;;;;;8.80;5.87;;;11.90;99.90;;;;;;5016181;28;20573;-72
2022/04/06 09:34:02;;;;;;;9.30;7.23;;;11.90;99.90;;;;;;5012969;28;20493;-73
2022/04/06 09:36:56;;;;;;;13.60;6.93;;;12.00;99.90;;;;;;5009735;28;20837;-72
2022/04/06 09:39:46;;;;;;;10.83;6.27;;;12.10;99.90;;;;;;5009446;28;20417;-72
2022/04/06 09:42:33;;;;;;;13.87;7.07;;;12.20;99.90;;;;;;5015850;28;20641;-72
2022/04/06 09:48:56;;;;;;;10.30;6.27;;;12.40;99.90;;;;;;4967853;28;20485;-72
2022/04/06 09:51:44;;;;;;;9.23;5.43;;;12.40;99.90;;;;;;5017944;28;20421;-72
2022/04/06 09:54:33;;;;;;;7.30;5.27;;;12.40;99.90;;;;;;5014948;28;20406;-72
2022/04/06 09:57:19;;;;;;;8.80;5.37;;;12.40;99.90;;;;;;5013736;28;20503;-72
2022/04/06 10:00:09;;;;;;;8.90;5.17;;;12.50;99.90;;;;;;5015570;28;21045;-72
2022/04/06 10:03:03;;;;;;;6.60;4.40;;;12.50;99.90;;;;;;5018729;28;20411;-72
2022/04/06 10:05:51;;;;;;;7.30;4.50;;;12.60;99.90;;;;;;5013499;28;20462;-72
2022/04/06 10:08:38;;;;;;;9.93;4.00;;;12.70;99.90;;;;;;5010132;28;20418;-73
2022/04/06 10:11:24;;;;;;;7.40;4.10;;;12.60;99.90;;;;;;5010819;28;20450;-72
2022/04/06 10:14:11;;;;;;;6.80;4.23;;;12.60;99.90;;;;;;5012365;28;20514;-72
2022/04/06 10:16:58;;;;;;;8.13;3.97;;;12.70;99.90;;;;;;5013696;28;20613;-73
2022/04/06 10:19:51;;;;;;;7.77;2.97;;;12.80;99.90;;;;;;4999551;28;20443;-72
2022/04/06 10:22:47;;;;;;;9.80;3.13;;;13.10;99.90;;;;;;5015922;28;20411;-73
2022/04/06 10:25:44;;;;;;;7.53;3.07;;;13.40;99.90;;;;;;5010753;28;20997;-72
2022/04/06 10:28:33;;;;;;;5.53;3.07;;;13.50;99.90;;;;;;5017725;28;20447;-73
2022/04/06 10:31:22;;;;;;;11.03;3.47;;;13.50;99.90;;;;;;5016038;28;20508;-72
2022/04/06 10:34:24;;;;;;;5.20;3.10;;;13.60;99.90;;;;;;5009442;28;20399;-72
2022/04/06 10:37:12;;;;;;;4.90;3.27;;;13.60;99.90;;;;;;5012560;28;20445;-72
2022/04/06 10:40:01;;;;;;;8.07;3.90;;;13.60;99.90;;;;;;5011130;28;20448;-72
2022/04/06 10:42:47;;;;;;;11.37;4.37;;;13.70;99.90;;;;;;5009847;28;21065;-72
2022/04/06 10:45:36;;;;;;;7.03;3.27;;;13.70;99.90;;;;;;5012819;28;20791;-72
2022/04/06 10:48:22;;;;;;;7.20;3.40;;;13.60;99.90;;;;;;5013344;28;21008;-70
2022/04/06 10:51:28;;;;;;;7.43;3.53;;;13.60;99.90;;;;;;5007805;28;20580;-72
2022/04/06 10:54:42;;;;;;;7.53;3.50;;;13.50;99.90;;;;;;5016321;28;20443;-71
2022/04/06 10:57:58;;;;;;;9.80;4.20;;;13.70;99.90;;;;;;5016036;28;20493;-72
2022/04/06 11:01:04;;;;;;;12.53;4.17;;;13.60;99.90;;;;;;5005062;28;20443;-72
2022/04/06 11:03:58;;;;;;;11.50;3.63;;;13.60;99.90;;;;;;5014513;28;20553;-72
2022/04/06 11:06:56;;;;;;;8.73;3.80;;;13.50;99.90;;;;;;5005528;28;20655;-73
2022/04/06 11:13:06;;;;;;;7.10;3.20;;;13.80;99.90;;;;;;5014642;28;20475;-73
2022/04/06 11:15:53;;;;;;;4.40;3.10;;;14.00;99.90;;;;;;5006303;28;20433;-73
2022/04/06 11:18:46;;;;;;;5.23;3.00;;;14.20;99.90;;;;;;5009224;28;20552;-73
2022/04/06 11:21:33;;;;;;;9.80;3.67;;;14.20;99.90;;;;;;5010492;28;20426;-73
2022/04/06 11:24:27;;;;;;;6.10;3.30;;;14.40;99.90;;;;;;5012920;28;20932;-73
2022/04/06 11:27:27;;;;;;;21.80;3.83;;;14.30;98.60;;;;;;5009217;28;20481;-73
2022/04/06 11:30:15;;;;;;;7.67;4.10;;;14.30;99.90;;;;;;5009695;28;20535;-73
2022/04/06 11:33:03;;;;;;;7.87;3.40;;;14.40;99.90;;;;;;5010605;28;20395;-73
2022/04/06 11:35:49;;;;;;;8.63;3.67;;;14.40;98.50;;;;;;5012062;28;20788;-73
2022/04/06 11:38:36;;;;;;;6.00;2.90;;;14.30;98.60;;;;;;5013359;28;20519;-73
2022/04/06 11:41:23;;;;;;;4.53;2.73;;;14.20;98.20;;;;;;5006368;28;20580;-73
2022/04/06 11:44:09;;;;;;;11.17;3.97;;;14.00;99.90;;;;;;4998579;28;20411;-73
2022/04/06 11:46:56;;;;;;;6.57;4.53;;;14.00;99.90;;;;;;5005507;28;20496;-74
2022/04/06 11:49:42;;;;;;;8.40;4.10;;;14.10;99.90;;;;;;5011203;28;20464;-74
2022/04/06 11:52:27;;;;;;;5.00;3.43;;;14.00;99.90;;;;;;5013199;28;21013;-74
2022/04/06 11:55:13;;;;;;;6.87;3.63;;;14.00;99.90;;;;;;5008685;28;20429;-74
2022/04/06 11:58:00;;;;;;;4.97;3.20;;;14.00;99.90;;;;;;5013284;28;20550;-73
2022/04/06 12:00:57;;;;;;;8.10;3.97;;;14.00;99.90;;;;;;5013752;28;20955;-73
2022/04/06 12:03:44;;;;;;;8.47;4.97;;;14.00;99.90;;;;;;5017689;28;20451;-73
2022/04/06 12:06:34;;;;;;;8.63;4.00;;;13.90;99.90;;;;;;5009909;28;20796;-74
2022/04/06 12:09:20;;;;;;;5.00;3.60;;;13.70;99.90;;;;;;5008379;28;20529;-73
2022/04/06 12:12:07;;;;;;;6.60;3.80;;;13.70;99.90;;;;;;5004466;28;20560;-74
2022/04/06 12:14:55;;;;;;;10.53;3.73;;;13.70;99.90;;;;;;5003622;28;20923;-74
2022/04/06 12:17:45;;;;;;;4.23;3.30;;;14.00;99.90;;;;;;5014896;28;20430;-74
2022/04/06 12:20:30;;;;;;;5.10;3.60;;;14.30;99.90;;;;;;5008032;28;20570;-74
2022/04/06 12:23:18;;;;;;;8.10;4.10;;;14.40;99.90;;;;;;5011810;28;20434;-74
2022/04/06 12:26:09;;;;;;;11.13;3.80;;;14.30;98.70;;;;;;5017245;28;20519;-73
2022/04/06 12:28:59;;;;;;;18.03;3.00;;;14.10;99.00;;;;;;5014184;28;20651;-74
2022/04/06 12:31:47;;;;;;;8.20;3.10;;;14.00;99.10;;;;;;5015021;28;20839;-74
2022/04/06 12:34:35;;;;;;;8.00;4.07;;;14.00;99.90;;;;;;5019502;28;20453;-73
2022/04/06 12:37:31;;;;;;;8.30;3.40;;;14.10;99.90;;;;;;5010200;28;20431;-74
2022/04/06 12:40:24;;;;;;;5.50;3.07;;;14.30;99.90;;;;;;5015439;28;20426;-73
2022/04/06 12:43:24;;;;;;;5.60;3.20;;;14.60;92.60;;;;;;5016438;28;20402;-73
2022/04/06 12:46:09;;;;;;;8.37;3.30;;;14.70;91.90;;;;;;5016130;28;20511;-74
2022/04/06 12:49:35;;;;;;;7.53;2.83;;;14.50;83.90;;;;;;5006032;28;20852;-73
2022/04/06 12:52:25;;;;;;;5.50;2.87;;;14.30;84.40;;;;;;5004136;28;20577;-74
2022/04/06 12:55:13;;;;;;;3.63;2.50;;;14.40;87.60;;;;;;5012039;28;20467;-74
2022/04/06 12:58:16;;;;;;;5.50;2.27;;;14.40;88.30;;;;;;5013329;28;20998;-74
2022/04/06 13:01:02;;;;;;;8.13;3.30;;;14.70;86.30;;;;;;5007676;28;20419;-74
2022/04/06 13:03:57;;;;;;;5.60;2.90;;;14.90;89.30;;;;;;5018478;28;20427;-74
2022/04/06 13:06:43;;;;;;;8.17;2.47;;;14.90;90.20;;;;;;5013165;28;20561;-73
2022/04/06 13:09:30;;;;;;;10.87;3.77;;;14.80;87.50;;;;;;5008260;28;20974;-73
2022/04/06 13:12:16;;;;;;;9.30;2.70;;;14.50;84.20;;;;;;5016143;28;20491;-74
2022/04/06 13:15:02;;;;;;;5.90;2.87;;;14.50;88.80;;;;;;5007723;28;20400;-73
2022/04/06 13:17:49;;;;;;;6.73;2.43;;;14.40;90.10;;;;;;5011871;28;20453;-73
2022/04/06 13:20:35;;;;;;;7.63;2.70;;;14.20;90.40;;;;;;5016057;28;20406;-73
2022/04/06 13:23:21;;;;;;;7.67;2.63;;;14.00;91.00;;;;;;5011880;28;20488;-74
2022/04/06 13:26:08;;;;;;;10.03;4.40;;;13.70;91.30;;;;;;5006282;28;20438;-73
2022/04/06 13:28:54;;;;;;;6.13;3.50;;;13.80;94.30;;;;;;5001871;28;20407;-74
2022/04/06 13:31:41;;;;;;;4.73;2.67;;;13.80;91.90;;;;;;5013483;28;20445;-74
2022/04/06 13:34:27;;;;;;;10.03;2.70;;;13.70;92.80;;;;;;5017030;28;20803;-74
2022/04/06 13:37:14;;;;;;;4.67;2.40;;;13.70;92.30;;;;;;5012286;28;20452;-74
2022/04/06 13:40:00;;;;;;;7.73;2.83;;;13.60;93.60;;;;;;5011039;28;20483;-74
2022/04/06 13:42:46;;;;;;;7.90;3.30;;;13.70;94.10;;;;;;5013102;28;20430;-73
2022/04/06 13:45:32;;;;;;;10.40;2.97;;;13.70;94.70;;;;;;5014080;28;20439;-73
2022/04/06 13:48:19;;;;;;;4.50;2.33;;;13.70;94.00;;;;;;5017522;28;20478;-73
2022/04/06 13:51:06;;;;;;;5.00;2.20;;;13.80;94.60;;;;;;5014053;28;20813;-73
2022/04/06 13:53:52;;;;;;;3.87;2.27;;;13.80;93.60;;;;;;5014070;28;20402;-73
2022/04/06 13:56:37;;;;;;;6.97;2.43;;;13.80;94.10;;;;;;5016780;28;20447;-73
2022/04/06 13:59:24;;;;;;;5.27;2.60;;;13.80;93.70;;;;;;5014213;28;20422;-73
2022/04/06 14:02:12;;;;;;;5.50;2.40;;;13.70;93.20;;;;;;5020298;28;20455;-74
2022/04/06 14:04:59;;;;;;;5.90;2.70;;;13.80;94.10;;;;;;5018959;28;20509;-74
2022/04/06 14:07:44;;;;;;;5.70;3.07;;;13.70;93.70;;;;;;5010080;28;20453;-73
2022/04/06 14:10:30;;;;;;;5.37;2.43;;;13.80;91.80;;;;;;5014254;28;21018;-73
2022/04/06 14:13:16;;;;;;;8.67;2.37;;;14.00;92.80;;;;;;5009933;28;20428;-74
2022/04/06 14:16:03;;;;;;;5.40;2.27;;;14.00;92.40;;;;;;5009986;28;20428;-74
2022/04/06 14:18:50;;;;;;;5.80;2.00;;;14.20;93.20;;;;;;5006260;28;20541;-74
2022/04/06 14:21:36;;;;;;;4.30;2.37;;;14.10;91.30;;;;;;5014115;28;20424;-73
2022/04/06 14:24:23;;;;;;;5.33;2.73;;;14.10;91.10;;;;;;5014837;28;20815;-73
2022/04/06 14:27:10;;;;;;;6.07;2.30;;;14.10;90.60;;;;;;5009350;28;20843;-73
2022/04/06 14:29:56;;;;;;;6.27;1.87;;;14.10;89.30;;;;;;5019247;28;20807;-73
2022/04/06 14:32:44;;;;;;;5.00;1.60;;;14.20;90.20;;;;;;5020227;28;20754;-74